| time (UTC) | temp C | wind direction | speed KPH | gust KPH | rain 1hr cm | rain 24hr cm | rain mn cm | humidity % | barometer mb |
| 20260506155924 | 15 | 249 | 4.8 | 12.9 | 0.00 | 0.00 | 0.00 | 79 | 1019.9 |
| 20260506152923 | 14 | 188 | 0.0 | 0.0 | 0.00 | 0.00 | 0.00 | 83 | 1019.9 |
| 20260506151424 | 13 | 188 | 0.0 | 3.2 | 0.00 | 0.00 | 0.00 | 85 | 1019.8 |
| 20260506145923 | 13 | 188 | 0.0 | 0.0 | 0.00 | 0.00 | 0.00 | 86 | 1019.9 |
| 20260506144422 | 13 | 188 | 0.0 | 0.0 | 0.00 | 0.00 | 0.00 | 87 | 1019.8 |
| 20260506142922 | 13 | 188 | 0.0 | 0.0 | 0.00 | 0.00 | 0.00 | 87 | 1019.8 |
| 20260506141422 | 13 | 188 | 0.0 | 0.0 | 0.00 | 0.00 | 0.00 | 87 | 1019.6 |
| 20260506135921 | 12 | 188 | 0.0 | 0.0 | 0.00 | 0.00 | 0.00 | 86 | 1019.5 |
| 20260506134421 | 12 | 188 | 0.0 | 0.0 | 0.00 | 0.00 | 0.00 | 86 | 1019.4 |
| 20260506132921 | 12 | 188 | 0.0 | 0.0 | 0.00 | 0.00 | 0.00 | 86 | 1019.3 |
| 20260506131421 | 12 | 188 | 0.0 | 0.0 | 0.00 | 0.00 | 0.00 | 86 | 1019.2 |
| 20260506125920 | 12 | 188 | 0.0 | 0.0 | 0.00 | 0.00 | 0.00 | 86 | 1019.2 |
| 20260506124420 | 12 | 188 | 0.0 | 0.0 | 0.00 | 0.00 | 0.00 | 86 | 1019.1 |
| 20260506122920 | 12 | 188 | 0.0 | 0.0 | 0.00 | 0.00 | 0.00 | 85 | 1019.0 |
| 20260506121419 | 12 | 188 | 0.0 | 0.0 | 0.00 | 0.00 | 0.00 | 85 | 1019.0 |
| 20260506115919 | 12 | 188 | 0.0 | 0.0 | 0.00 | 0.00 | 0.00 | 85 | 1018.9 |
| 20260506114419 | 12 | 188 | 0.0 | 0.0 | 0.00 | 0.00 | 0.00 | 85 | 1018.9 |
| 20260506112920 | 13 | 188 | 0.0 | 0.0 | 0.00 | 0.00 | 0.00 | 85 | 1018.8 |
| 20260506105919 | 13 | 188 | 0.0 | 0.0 | 0.00 | 0.03 | 0.00 | 84 | 1018.7 |
| 20260506104418 | 13 | 188 | 0.0 | 0.0 | 0.00 | 0.03 | 0.00 | 84 | 1018.6 |
| 20260506101417 | 13 | 188 | 0.0 | 0.0 | 0.00 | 0.03 | 0.00 | 84 | 1018.4 |
| 20260506095917 | 13 | 188 | 0.0 | 0.0 | 0.00 | 0.03 | 0.00 | 84 | 1018.3 |
| 20260506094418 | 13 | 188 | 0.0 | 0.0 | 0.00 | 0.03 | 0.00 | 84 | 1018.3 |
| 20260506092917 | 13 | 188 | 0.0 | 0.0 | 0.00 | 0.03 | 0.00 | 84 | 1018.3 |
| 20260506091416 | 13 | 188 | 0.0 | 0.0 | 0.00 | 0.03 | 0.00 | 84 | 1018.3 |
| 20260506085915 | 13 | 188 | 0.0 | 0.0 | 0.00 | 0.03 | 0.00 | 83 | 1018.3 |
| 20260506082916 | 13 | 188 | 0.0 | 0.0 | 0.00 | 0.05 | 0.00 | 83 | 1018.4 |
| 20260506072914 | 13 | 188 | 0.0 | 3.2 | 0.00 | 0.05 | 0.00 | 83 | 1018.1 |
| 20260506071414 | 13 | 188 | 0.0 | 0.0 | 0.00 | 0.05 | 0.00 | 83 | 1018.0 |
| 20260506061442 | 13 | 189 | 0.0 | 0.0 | 0.00 | 0.30 | 0.05 | 82 | 1017.5 |
| 20260506044441 | 13 | 189 | 0.0 | 3.2 | 0.00 | 0.51 | 0.05 | 81 | 1016.8 |
| 20260506035940 | 14 | 153 | 0.0 | 12.9 | 0.00 | 0.53 | 0.05 | 79 | 1016.2 |
| 20260506034440 | 14 | 169 | 3.2 | 14.5 | 0.00 | 0.56 | 0.05 | 78 | 1016.0 |
| 20260506032939 | 14 | 141 | 0.0 | 17.7 | 0.00 | 0.56 | 0.05 | 77 | 1015.8 |
| 20260506031439 | 14 | 150 | 0.0 | 14.5 | 0.00 | 0.58 | 0.05 | 76 | 1015.4 |
| 20260506025939 | 15 | 148 | 0.0 | 24.1 | 0.00 | 0.61 | 0.05 | 75 | 1015.2 |
| 20260506024440 | 15 | 152 | 0.0 | 14.5 | 0.00 | 0.64 | 0.05 | 74 | 1015.2 |
| 20260506022938 | 15 | 157 | 0.0 | 14.5 | 0.00 | 0.69 | 0.05 | 73 | 1015.2 |
| 20260506021438 | 15 | 169 | 0.0 | 14.5 | 0.00 | 0.71 | 0.05 | 72 | 1015.1 |
| 20260506015938 | 16 | 153 | 14.5 | 14.5 | 0.00 | 0.76 | 0.05 | 73 | 1014.9 |
| 20260506014437 | 16 | 261 | 3.2 | 17.7 | 0.00 | 0.81 | 0.05 | 72 | 1014.7 |
| 20260506012938 | 16 | 221 | 4.8 | 14.5 | 0.00 | 0.84 | 0.05 | 72 | 1014.7 |
| 20260506004437 | 16 | 284 | 14.5 | 19.3 | 0.00 | 0.94 | 0.05 | 71 | 1014.5 |
| 20260506002936 | 16 | 237 | 0.0 | 17.7 | 0.00 | 0.97 | 0.05 | 72 | 1014.4 |
| 20260506001435 | 16 | 240 | 8.0 | 19.3 | 0.00 | 1.02 | 0.05 | 72 | 1014.3 |
| 20260505235935 | 16 | 251 | 0.0 | 19.3 | 0.00 | 1.04 | 0.05 | 72 | 1014.3 |
| 20260505234435 | 17 | 215 | 9.7 | 22.5 | 0.00 | 1.07 | 0.05 | 71 | 1014.4 |
| 20260505232935 | 17 | 252 | 4.8 | 17.7 | 0.00 | 1.09 | 0.05 | 71 | 1014.3 |
| 20260505231434 | 17 | 217 | 12.9 | 19.3 | 0.00 | 1.12 | 0.05 | 71 | 1014.4 |
| 20260505224434 | 17 | 200 | 3.2 | 14.5 | 0.00 | 1.19 | 0.05 | 71 | 1014.4 |
| 20260505222934 | 17 | 264 | 0.0 | 17.7 | 0.00 | 1.22 | 0.05 | 71 | 1014.4 |
| 20260505221434 | 17 | 203 | 4.8 | 14.5 | 0.00 | 1.24 | 0.05 | 71 | 1014.5 |
| 20260505215934 | 17 | 257 | 0.0 | 12.9 | 0.00 | 1.24 | 0.05 | 70 | 1014.5 |
| 20260505214433 | 17 | 222 | 0.0 | 12.9 | 0.00 | 1.24 | 0.05 | 70 | 1014.7 |
| 20260505212934 | 18 | 245 | 0.0 | 14.5 | 0.00 | 1.24 | 0.05 | 71 | 1014.8 |
| 20260505205933 | 17 | 281 | 12.9 | 19.3 | 0.00 | 1.24 | 0.05 | 72 | 1014.9 |
| 20260505204433 | 17 | 281 | 0.0 | 14.5 | 0.00 | 1.24 | 0.05 | 71 | 1014.9 |
| 20260505202933 | 17 | 229 | 0.0 | 14.5 | 0.00 | 1.24 | 0.05 | 72 | 1014.9 |
| 20260505201433 | 18 | 254 | 0.0 | 17.7 | 0.00 | 1.24 | 0.05 | 70 | 1015.0 |
| 20260505195933 | 17 | 207 | 0.0 | 9.7 | 0.00 | 1.24 | 0.05 | 72 | 1015.0 |
| 20260505194433 | 17 | 237 | 9.7 | 14.5 | 0.00 | 1.24 | 0.05 | 72 | 1015.0 |
| 20260505192933 | 17 | 248 | 0.0 | 12.9 | 0.00 | 1.24 | 0.05 | 71 | 1015.1 |
| 20260505185932 | 16 | 279 | 0.0 | 14.5 | 0.00 | 1.24 | 0.05 | 74 | 1015.0 |
| 20260505184432 | 16 | 278 | 0.0 | 12.9 | 0.00 | 1.24 | 0.05 | 75 | 1015.0 |
| 20260505181432 | 16 | 219 | 0.0 | 3.2 | 0.00 | 1.24 | 0.05 | 80 | 1014.9 |
| 20260505175932 | 16 | 219 | 0.0 | 4.8 | 0.00 | 1.24 | 0.05 | 77 | 1014.9 |
| 20260505174432 | 16 | 219 | 0.0 | 4.8 | 0.00 | 1.24 | 0.05 | 78 | 1014.9 |
| 20260505172931 | 15 | 219 | 0.0 | 8.0 | 0.00 | 1.24 | 0.05 | 78 | 1014.7 |
| 20260505165931 | 14 | 211 | 0.0 | 3.2 | 0.00 | 1.24 | 0.05 | 85 | 1014.8 |
| 20260505164430 | 13 | 211 | 0.0 | 3.2 | 0.00 | 1.24 | 0.05 | 85 | 1014.8 |
| 20260505162931 | 13 | 211 | 0.0 | 4.8 | 0.00 | 1.24 | 0.05 | 87 | 1014.7 |
| 20260505161430 | 13 | 211 | 0.0 | 0.0 | 0.00 | 1.24 | 0.05 | 89 | 1014.6 |